Time;durP1;ratioP1;P1;durP2;ratioP2;P2;SDS_P1;SDS_P2;PMS_P1;PMS_P2;Temp;Humidity;BMP_temperature;BMP_pressure;BME280_temperature;BME280_humidity;BME280_pressure;Samples;Min_cycle;Max_cycle;Signal;HPM_P1;HPM_P2
2023/04/01 00:01:07;;;;;;;4.57;1.17;;;;;;;8.96;100.00;98932.16;6051545;28;20403;-71
2023/04/01 00:04:03;;;;;;;4.60;1.20;;;;;;;8.98;100.00;98935.44;6050287;28;20034;-73
2023/04/01 00:07:00;;;;;;;3.85;1.40;;;;;;;9.10;100.00;98941.13;6052088;28;20034;-74
2023/04/01 00:09:55;;;;;;;5.93;1.45;;;;;;;9.03;100.00;98933.09;6056721;28;20045;-73
2023/04/01 00:12:50;;;;;;;6.17;1.53;;;;;;;9.12;100.00;98939.94;6050766;28;20099;-71
2023/04/01 00:15:46;;;;;;;3.27;0.90;;;;;;;9.10;100.00;98935.84;6052046;28;20382;-74
2023/04/01 00:18:41;;;;;;;5.63;1.20;;;;;;;9.09;100.00;98929.72;6070305;28;20384;-70
2023/04/01 00:21:36;;;;;;;8.40;1.17;;;;;;;9.14;100.00;98943.22;6059421;28;20040;-73
2023/04/01 00:24:32;;;;;;;5.93;1.63;;;;;;;9.08;100.00;98930.72;6049882;28;20403;-71
2023/04/01 00:27:27;;;;;;;3.47;1.20;;;;;;;9.12;100.00;98933.81;6050672;28;20036;-71
2023/04/01 00:30:22;;;;;;;9.83;1.50;;;;;;;9.13;100.00;98938.13;6050877;28;20046;-71
2023/04/01 00:33:18;;;;;;;6.57;1.60;;;;;;;9.14;100.00;98942.41;6050288;28;20755;-71
2023/04/01 00:36:17;;;;;;;6.53;1.40;;;;;;;9.09;100.00;98937.66;6050228;28;20057;-71
2023/04/01 00:39:12;;;;;;;5.68;1.58;;;;;;;9.14;100.00;98945.88;6056331;28;20394;-70
2023/04/01 00:42:09;;;;;;;3.20;1.10;;;;;;;9.10;100.00;98941.94;6074162;28;20033;-71
2023/04/01 00:45:26;;;;;;;9.23;1.35;;;;;;;8.99;100.00;98929.16;6073469;28;20036;-71
2023/04/01 00:48:30;;;;;;;6.90;1.30;;;;;;;9.01;100.00;98927.16;6073651;28;20123;-71
2023/04/01 00:51:27;;;;;;;10.05;1.38;;;;;;;9.08;100.00;98941.28;6074013;28;20519;-71
2023/04/01 00:54:25;;;;;;;3.63;1.23;;;;;;;9.05;100.00;98941.66;6031915;28;20029;-71
2023/04/01 00:57:27;;;;;;;7.55;1.13;;;;;;;8.97;100.00;98926.69;6033144;28;20026;-71
2023/04/01 01:00:22;;;;;;;3.50;1.00;;;;;;;8.95;100.00;98933.16;6049111;28;20034;-70
2023/04/01 01:03:17;;;;;;;3.42;1.00;;;;;;;9.00;100.00;98941.38;6049383;28;20494;-72
2023/04/01 01:06:26;;;;;;;5.90;1.33;;;;;;;9.03;100.00;98941.00;6050208;28;20034;-72
2023/04/01 01:09:45;;;;;;;5.15;1.05;;;;;;;8.99;100.00;98948.47;6046229;28;20033;-72
2023/04/01 01:13:16;;;;;;;2.97;0.90;;;;;;;8.97;100.00;98939.91;6032701;28;20053;-71
2023/04/01 01:16:21;;;;;;;7.50;1.10;;;;;;;8.86;100.00;98928.94;6065168;28;20084;-71
2023/04/01 01:19:33;;;;;;;3.88;0.75;;;;;;;8.91;100.00;98932.69;6057600;28;20033;-72
2023/04/01 01:22:43;;;;;;;2.97;0.82;;;;;;;8.94;100.00;98939.47;6056382;28;20045;-71
2023/04/01 01:25:51;;;;;;;4.88;0.82;;;;;;;8.94;100.00;98936.81;6055381;28;20474;-71
2023/04/01 01:29:02;;;;;;;3.78;0.88;;;;;;;8.94;100.00;98942.09;6069418;28;20507;-72
2023/04/01 01:32:11;;;;;;;3.53;1.00;;;;;;;8.82;100.00;98932.94;6032244;28;20041;-72
2023/04/01 01:35:35;;;;;;;2.00;0.73;;;;;;;8.90;100.00;98946.91;6051337;28;20087;-71
2023/04/01 01:38:32;;;;;;;5.72;0.88;;;;;;;8.92;100.00;98938.81;6055559;28;20133;-72
2023/04/01 01:41:29;;;;;;;3.30;0.90;;;;;;;8.82;100.00;98922.38;6089003;28;20132;-72
2023/04/01 01:44:25;;;;;;;3.03;0.63;;;;;;;8.85;100.00;98938.72;6055140;28;20071;-71
2023/04/01 01:47:22;;;;;;;1.48;0.40;;;;;;;8.85;100.00;98937.88;6065253;28;20117;-72
2023/04/01 01:50:18;;;;;;;1.98;0.70;;;;;;;8.82;100.00;98944.34;6043788;28;20033;-72
2023/04/01 01:53:13;;;;;;;3.58;0.93;;;;;;;8.73;100.00;98936.66;6063562;28;20030;-71
2023/04/01 01:56:12;;;;;;;2.50;0.80;;;;;;;8.65;100.00;98931.44;6048749;28;20073;-72
2023/04/01 01:59:09;;;;;;;6.50;1.05;;;;;;;8.77;100.00;98952.00;6063647;28;20280;-71
2023/04/01 02:02:07;;;;;;;2.58;0.95;;;;;;;8.72;100.00;98937.66;6070535;28;20108;-71
2023/04/01 02:05:04;;;;;;;2.17;0.75;;;;;;;8.71;100.00;98944.78;6071431;28;20045;-71
2023/04/01 02:08:07;;;;;;;1.83;0.70;;;;;;;8.56;100.00;98928.03;6039549;28;20026;-71
2023/04/01 02:11:07;;;;;;;3.03;0.75;;;;;;;8.65;100.00;98939.38;6056920;28;20034;-71
2023/04/01 02:14:10;;;;;;;2.33;0.60;;;;;;;8.72;100.00;98953.53;6054910;28;20062;-71
2023/04/01 02:17:08;;;;;;;3.15;0.82;;;;;;;8.60;100.00;98939.06;6055750;28;20061;-71
2023/04/01 02:20:14;;;;;;;2.25;0.70;;;;;;;8.67;100.00;98951.41;6056397;28;20113;-71
2023/04/01 02:23:10;;;;;;;1.33;0.45;;;;;;;8.60;100.00;98939.91;6039239;28;20038;-71
2023/04/01 02:26:07;;;;;;;2.50;0.70;;;;;;;8.67;100.00;98956.69;6056017;28;20038;-71
2023/04/01 02:29:03;;;;;;;3.70;0.70;;;;;;;8.68;100.00;98957.50;6039312;28;20034;-71
2023/04/01 02:31:59;;;;;;;2.67;0.68;;;;;;;8.69;100.00;98959.16;6058497;28;20033;-71
2023/04/01 02:34:55;;;;;;;4.20;1.80;;;;;;;8.64;100.00;98950.94;6095219;28;20056;-72
2023/04/01 02:37:52;;;;;;;2.75;0.93;;;;;;;8.58;100.00;98951.66;6080722;28;20180;-72
2023/04/01 02:40:50;;;;;;;2.15;0.70;;;;;;;8.59;100.00;98950.66;6076086;28;20089;-72
2023/04/01 02:43:45;;;;;;;1.60;0.85;;;;;;;8.48;100.00;98935.22;6095561;28;20041;-72
2023/04/01 02:46:41;;;;;;;4.83;1.10;;;;;;;8.51;100.00;98934.84;6062941;28;20073;-71
2023/04/01 02:49:36;;;;;;;3.45;1.00;;;;;;;8.54;100.00;98948.53;6046279;28;20276;-71
2023/04/01 02:52:31;;;;;;;7.40;1.10;;;;;;;8.53;100.00;98960.13;6056548;28;20036;-71
2023/04/01 02:55:27;;;;;;;3.13;1.30;;;;;;;8.58;100.00;98963.03;6056370;28;20045;-71
2023/04/01 02:58:22;;;;;;;6.93;1.60;;;;;;;8.54;100.00;98945.88;6056321;28;20037;-70
2023/04/01 03:01:18;;;;;;;4.17;1.40;;;;;;;8.61;100.00;98957.41;6056155;28;20038;-71
2023/04/01 03:04:13;;;;;;;5.88;1.85;;;;;;;8.71;100.00;98967.72;6055058;28;20499;-71
2023/04/01 03:07:10;;;;;;;8.47;1.37;;;;;;;8.69;100.00;98954.72;6075153;28;20389;-71
2023/04/01 03:10:07;;;;;;;4.13;1.85;;;;;;;8.74;100.00;98956.81;6079836;28;20442;-71
2023/04/01 03:13:02;;;;;;;5.10;1.60;;;;;;;8.75;100.00;98950.53;6076898;28;20040;-71
2023/04/01 03:15:58;;;;;;;5.15;1.95;;;;;;;8.79;100.00;98957.09;6075565;28;20462;-71
2023/04/01 03:18:55;;;;;;;8.10;2.22;;;;;;;8.81;100.00;98969.13;6075958;28;20099;-71
2023/04/01 03:21:50;;;;;;;7.50;1.75;;;;;;;8.74;100.00;98954.16;6053680;28;20118;-71
2023/04/01 03:24:45;;;;;;;5.40;1.70;;;;;;;8.72;100.00;98958.81;6059114;28;20395;-72
2023/04/01 03:27:41;;;;;;;6.80;1.90;;;;;;;8.73;100.00;98944.56;6051943;28;20042;-72
2023/04/01 03:30:36;;;;;;;5.93;1.90;;;;;;;8.73;100.00;98958.63;6051715;28;20038;-70
2023/04/01 03:33:31;;;;;;;4.77;1.50;;;;;;;8.74;100.00;98962.09;6051030;28;20026;-71
2023/04/01 03:36:27;;;;;;;4.00;1.45;;;;;;;8.81;100.00;98973.59;6063921;28;20029;-71
2023/04/01 03:39:22;;;;;;;5.33;1.27;;;;;;;8.79;100.00;98976.41;6051619;28;20036;-72
2023/04/01 03:42:18;;;;;;;5.30;1.33;;;;;;;8.64;100.00;98951.75;6052697;28;20030;-72
2023/04/01 03:45:13;;;;;;;5.50;1.60;;;;;;;8.75;100.00;98977.75;6050979;28;20601;-72
2023/04/01 03:48:08;;;;;;;9.80;2.13;;;;;;;8.77;100.00;98980.25;6051662;28;20037;-72
2023/04/01 03:51:07;;;;;;;7.40;2.50;;;;;;;8.75;100.00;98980.41;6051553;28;20041;-72
2023/04/01 03:54:03;;;;;;;7.07;2.25;;;;;;;8.83;100.00;98982.97;6050684;28;20033;-72
2023/04/01 03:56:58;;;;;;;7.20;2.07;;;;;;;8.82;100.00;98975.25;6052871;28;20441;-72
2023/04/01 03:59:54;;;;;;;10.80;2.38;;;;;;;8.87;100.00;98979.00;6073267;28;20030;-71
2023/04/01 04:02:49;;;;;;;8.50;1.98;;;;;;;8.84;100.00;98971.41;6062370;28;20125;-72
2023/04/01 04:05:48;;;;;;;8.33;2.30;;;;;;;8.87;100.00;98983.44;6050789;28;20033;-72
2023/04/01 04:08:44;;;;;;;7.55;1.95;;;;;;;8.81;100.00;98968.28;6051066;28;20087;-71
2023/04/01 04:11:39;;;;;;;4.00;1.80;;;;;;;8.71;100.00;98957.97;6051631;28;20044;-71
2023/04/01 04:14:34;;;;;;;6.47;1.80;;;;;;;8.86;100.00;98981.78;6051513;28;20113;-72
2023/04/01 04:17:30;;;;;;;5.80;2.30;;;;;;;8.85;100.00;98977.53;6058992;28;20034;-71
2023/04/01 04:20:25;;;;;;;11.30;3.17;;;;;;;8.74;100.00;98973.50;6057342;28;20095;-72
2023/04/01 04:23:21;;;;;;;7.40;2.77;;;;;;;8.70;100.00;98969.53;6050645;28;20038;-72
2023/04/01 04:26:16;;;;;;;9.52;3.13;;;;;;;8.76;100.00;98987.34;6073758;28;20033;-71
2023/04/01 04:29:11;;;;;;;11.33;3.17;;;;;;;8.68;100.00;98970.72;6066521;28;20041;-71
2023/04/01 04:32:06;;;;;;;6.60;2.20;;;;;;;8.74;100.00;98993.81;6065096;28;20040;-72
2023/04/01 04:35:02;;;;;;;9.07;2.30;;;;;;;8.68;100.00;98976.00;6050674;28;20033;-71
2023/04/01 04:37:57;;;;;;;8.00;2.27;;;;;;;8.68;100.00;98987.41;6050503;28;20026;-71
2023/04/01 04:40:53;;;;;;;6.87;1.60;;;;;;;8.63;100.00;98992.41;6050428;28;20026;-72
2023/04/01 04:43:53;;;;;;;6.60;1.48;;;;;;;8.71;100.00;99005.53;6049653;28;20104;-72
2023/04/01 04:46:48;;;;;;;9.45;3.08;;;;;;;8.69;100.00;99004.91;6067446;28;20041;-72
2023/04/01 04:49:44;;;;;;;8.80;1.87;;;;;;;8.72;100.00;99003.72;6065378;28;20040;-72
2023/04/01 04:52:39;;;;;;;8.05;2.10;;;;;;;8.66;100.00;98997.34;6050454;28;20037;-71
2023/04/01 04:55:34;;;;;;;8.00;2.43;;;;;;;8.74;100.00;99009.66;6049563;28;20034;-72
2023/04/01 04:58:30;;;;;;;10.40;3.07;;;;;;;8.60;100.00;98994.56;6049666;28;20395;-73
2023/04/01 05:01:25;;;;;;;5.97;2.07;;;;;;;8.66;100.00;99013.19;6066390;28;20037;-72
2023/04/01 05:04:20;;;;;;;10.70;2.78;;;;;;;8.61;100.00;99001.50;6067139;28;20033;-71
2023/04/01 05:07:16;;;;;;;6.30;2.20;;;;;;;8.61;100.00;98998.84;6084268;28;20100;-72
2023/04/01 05:10:11;;;;;;;7.27;2.37;;;;;;;8.73;100.00;99008.00;6093766;28;20033;-72
2023/04/01 05:13:07;;;;;;;5.47;1.80;;;;;;;8.68;100.00;99005.06;6073601;28;20055;-71
2023/04/01 05:16:02;;;;;;;6.28;2.20;;;;;;;8.73;100.00;99010.66;6051666;28;20592;-72
2023/04/01 05:18:57;;;;;;;6.17;1.70;;;;;;;8.68;100.00;99010.34;6049624;28;20022;-72
2023/04/01 05:21:52;;;;;;;6.43;1.97;;;;;;;8.63;100.00;99013.53;6049880;28;20771;-72
2023/04/01 05:24:48;;;;;;;7.23;1.70;;;;;;;8.69;100.00;99025.22;6048991;28;20048;-72
2023/04/01 05:27:44;;;;;;;9.65;2.22;;;;;;;8.63;100.00;99018.00;6049434;28;20022;-71
2023/04/01 05:30:41;;;;;;;5.90;2.23;;;;;;;8.66;100.00;99012.34;6050976;28;20044;-72
2023/04/01 05:33:36;;;;;;;8.70;2.13;;;;;;;8.61;100.00;99004.13;6048717;28;20088;-72
2023/04/01 05:36:32;;;;;;;9.77;2.35;;;;;;;8.72;100.00;99012.50;6057062;28;20037;-73
2023/04/01 05:39:27;;;;;;;8.70;1.90;;;;;;;8.74;100.00;99014.94;6047701;28;20042;-73
2023/04/01 05:42:22;;;;;;;6.40;2.03;;;;;;;8.84;100.00;99034.03;6049328;28;20115;-72
2023/04/01 05:45:18;;;;;;;5.57;1.83;;;;;;;8.77;100.00;99019.88;6048690;28;20264;-73
2023/04/01 05:48:13;;;;;;;5.33;1.73;;;;;;;8.86;100.00;99029.38;6059512;28;20033;-73
2023/04/01 05:51:13;;;;;;;7.37;1.97;;;;;;;8.81;100.00;99021.16;6052406;28;20379;-72
2023/04/01 05:54:09;;;;;;;3.90;1.38;;;;;;;8.87;100.00;99031.03;6048702;28;20029;-72
2023/04/01 05:57:04;;;;;;;5.97;1.67;;;;;;;8.83;100.00;99016.53;6048932;28;20414;-72
2023/04/01 05:59:59;;;;;;;4.85;1.42;;;;;;;8.94;100.00;99031.97;6048840;28;20327;-72
2023/04/01 06:02:55;;;;;;;4.05;1.30;;;;;;;8.84;100.00;99024.28;6059217;28;20487;-72
2023/04/01 06:05:50;;;;;;;7.77;1.40;;;;;;;8.83;100.00;99012.03;6085964;28;20429;-72
2023/04/01 06:08:45;;;;;;;6.13;1.30;;;;;;;8.84;100.00;99018.16;6072900;28;20279;-72
2023/04/01 06:12:00;;;;;;;6.27;1.70;;;;;;;8.95;100.00;99033.59;6072526;28;20466;-72
2023/04/01 06:15:13;;;;;;;5.88;1.85;;;;;;;8.92;100.00;99039.25;6054647;28;20049;-72
2023/04/01 06:18:26;;;;;;;5.78;1.90;;;;;;;8.94;100.00;99035.44;6088825;28;20099;-73
2023/04/01 06:21:52;;;;;;;4.13;1.52;;;;;;;9.01;100.00;99051.41;6071121;28;20026;-72
2023/04/01 06:24:48;;;;;;;5.53;2.22;;;;;;;9.04;100.00;99053.72;6061010;28;20101;-72
2023/04/01 06:27:52;;;;;;;5.95;2.33;;;;;;;9.09;100.00;99061.94;6048802;28;20391;-73
2023/04/01 06:30:55;;;;;;;6.05;1.50;;;;;;;9.01;100.00;99050.59;6048673;28;20049;-73
2023/04/01 06:34:08;;;;;;;5.63;1.60;;;;;;;9.05;100.00;99059.81;6048023;28;20038;-72
2023/04/01 06:37:20;;;;;;;5.13;1.95;;;;;;;9.09;100.00;99056.63;6048747;28;20065;-72
2023/04/01 06:40:40;;;;;;;4.18;1.65;;;;;;;9.17;100.00;99069.78;6033485;28;20494;-72
2023/04/01 06:44:06;;;;;;;6.18;1.83;;;;;;;9.21;100.00;99065.81;6047812;28;20046;-73
2023/04/01 06:47:21;;;;;;;2.92;0.95;;;;;;;9.33;100.00;99069.66;6048792;28;20049;-72
2023/04/01 06:50:35;;;;;;;4.05;1.20;;;;;;;9.34;100.00;99073.97;6051921;28;20040;-72
2023/04/01 06:53:49;;;;;;;3.58;1.15;;;;;;;9.48;100.00;99077.66;6051909;28;20042;-73
2023/04/01 06:56:49;;;;;;;4.05;1.23;;;;;;;9.55;100.00;99071.44;6054412;28;20042;-72
2023/04/01 06:59:45;;;;;;;4.32;1.30;;;;;;;9.58;100.00;99060.50;6051507;28;20022;-73
2023/04/01 07:02:53;;;;;;;5.95;1.05;;;;;;;9.62;100.00;99062.78;6051883;28;20084;-72
2023/04/01 07:05:49;;;;;;;2.38;0.88;;;;;;;9.85;100.00;99074.13;6058964;28;20405;-72
2023/04/01 07:08:44;;;;;;;4.20;1.08;;;;;;;9.84;100.00;99072.47;6076733;28;20039;-74
2023/04/01 07:11:40;;;;;;;4.40;1.23;;;;;;;9.83;100.00;99069.03;6085504;28;20026;-73
2023/04/01 07:14:37;;;;;;;3.67;1.20;;;;;;;9.87;100.00;99077.41;6052013;28;20049;-73
2023/04/01 07:17:33;;;;;;;2.75;1.10;;;;;;;9.90;100.00;99090.28;6052503;28;20120;-72
2023/04/01 07:20:35;;;;;;;4.32;1.00;;;;;;;9.89;100.00;99099.25;6053920;28;20036;-72
2023/04/01 07:23:39;;;;;;;2.97;1.23;;;;;;;9.84;100.00;99083.06;6042465;28;20099;-72
2023/04/01 07:26:34;;;;;;;5.13;1.40;;;;;;;9.78;100.00;99083.81;6079100;28;20044;-72
2023/04/01 07:29:30;;;;;;;4.83;1.23;;;;;;;9.86;100.00;99099.59;6063553;28;20025;-71
2023/04/01 07:32:40;;;;;;;3.05;1.08;;;;;;;9.88;100.00;99103.72;6087370;28;20033;-71
2023/04/01 07:35:40;;;;;;;3.03;0.85;;;;;;;9.94;100.00;99110.13;6060782;28;20161;-72
2023/04/01 07:39:01;;;;;;;1.83;0.90;;;;;;;9.96;100.00;99097.50;6057899;28;20079;-70
2023/04/01 07:42:06;;;;;;;3.75;0.80;;;;;;;10.16;100.00;99109.25;6051152;28;20168;-71
2023/04/01 07:45:17;;;;;;;2.47;0.95;;;;;;;10.43;100.00;99121.00;6033579;28;20057;-70
2023/04/01 07:48:40;;;;;;;4.22;1.20;;;;;;;10.77;100.00;99116.75;6051918;28;20038;-71
2023/04/01 07:51:48;;;;;;;6.70;1.50;;;;;;;10.80;100.00;99122.69;6053389;28;20144;-72
2023/04/01 07:54:53;;;;;;;5.30;1.08;;;;;;;10.76;100.00;99117.75;6044910;28;20050;-72
2023/04/01 07:57:57;;;;;;;5.53;1.48;;;;;;;10.75;100.00;99118.78;6050775;28;20042;-70
2023/04/01 08:01:05;;;;;;;4.97;1.80;;;;;;;10.88;100.00;99125.22;6054998;28;20026;-71
2023/04/01 08:04:19;;;;;;;5.45;1.30;;;;;;;11.20;100.00;99138.00;6051767;28;20033;-71
2023/04/01 08:07:24;;;;;;;2.65;1.05;;;;;;;11.18;100.00;99142.69;6040636;28;20040;-71
2023/04/01 08:10:25;;;;;;;3.47;1.17;;;;;;;10.91;100.00;99127.50;6051105;28;20133;-71
2023/04/01 08:13:34;;;;;;;5.13;0.85;;;;;;;11.04;100.00;99141.72;6037208;28;20042;-73
2023/04/01 08:16:37;;;;;;;1.90;0.90;;;;;;;11.02;99.31;99137.63;6056118;28;20052;-73
2023/04/01 08:19:51;;;;;;;3.75;0.77;;;;;;;11.11;99.26;99147.13;6070005;28;20363;-72
2023/04/01 08:23:17;;;;;;;5.53;0.70;;;;;;;11.25;99.29;99143.59;6049770;28;20092;-73
2023/04/01 08:26:19;;;;;;;2.00;0.70;;;;;;;11.43;95.83;99141.31;6025610;28;20116;-70
2023/04/01 08:29:17;;;;;;;2.83;0.80;;;;;;;11.39;98.23;99160.47;6054256;28;20041;-71
2023/04/01 08:32:16;;;;;;;1.63;0.70;;;;;;;11.68;96.14;99145.22;6052920;28;20133;-71
2023/04/01 08:35:20;;;;;;;1.80;0.60;;;;;;;11.96;95.81;99160.41;6034088;28;20042;-71
2023/04/01 08:38:27;;;;;;;2.53;0.80;;;;;;;11.78;93.06;99153.72;6035548;28;20467;-71
2023/04/01 08:41:39;;;;;;;2.50;0.80;;;;;;;11.89;95.85;99163.00;6048190;28;20044;-71
2023/04/01 08:44:44;;;;;;;4.18;0.77;;;;;;;11.58;93.98;99163.28;6031553;28;20033;-70
2023/04/01 08:47:50;;;;;;;1.98;0.90;;;;;;;11.74;94.57;99168.38;6033399;28;20100;-71
2023/04/01 08:51:19;;;;;;;2.17;0.55;;;;;;;11.96;91.27;99168.38;6048227;28;20391;-71
2023/04/01 08:54:39;;;;;;;1.20;0.65;;;;;;;11.98;91.71;99171.63;6031789;28;20548;-71
2023/04/01 08:57:58;;;;;;;1.33;0.57;;;;;;;11.71;91.46;99174.06;6066911;28;20118;-70
2023/04/01 09:00:57;;;;;;;2.70;0.77;;;;;;;11.88;91.39;99158.69;6057190;28;20037;-72
2023/04/01 09:04:04;;;;;;;2.45;0.98;;;;;;;12.01;92.25;99163.28;6063566;28;20053;-73
2023/04/01 09:07:29;;;;;;;2.42;0.93;;;;;;;12.14;93.33;99176.66;6057630;28;20029;-71
2023/04/01 09:10:49;;;;;;;6.45;1.02;;;;;;;12.41;90.54;99175.81;6051274;28;20041;-72
2023/04/01 09:14:01;;;;;;;1.92;0.70;;;;;;;12.13;88.77;99177.66;6036625;28;20426;-72
2023/04/01 09:17:26;;;;;;;4.20;0.55;;;;;;;11.69;88.94;99168.13;6063709;28;20057;-71
2023/04/01 09:20:59;;;;;;;2.47;0.73;;;;;;;11.82;92.13;99186.03;6050407;28;20030;-69
2023/04/01 09:24:12;;;;;;;2.78;0.57;;;;;;;11.76;89.89;99190.28;6030340;28;20038;-73
2023/04/01 09:27:30;;;;;;;;;;;;;;;11.81;90.47;99197.66;6031914;28;20478;-73
2023/04/01 09:30:48;;;;;;;1.58;0.80;;;;;;;11.79;92.06;99194.38;6063053;28;20205;-72
2023/04/01 09:34:06;;;;;;;2.47;0.47;;;;;;;11.34;93.07;99200.84;6063019;28;20034;-72
2023/04/01 09:37:46;;;;;;;1.48;0.70;;;;;;;11.35;94.53;99207.78;6043797;28;20400;-73
2023/04/01 09:40:51;;;;;;;0.65;0.50;;;;;;;11.18;91.81;99201.88;6018315;28;20245;-72
2023/04/01 09:43:57;;;;;;;1.85;0.90;;;;;;;11.43;92.35;99210.34;6030081;28;20597;-71
2023/04/01 09:47:06;;;;;;;2.55;0.80;;;;;;;11.54;92.27;99199.22;6068852;28;20462;-71
2023/04/01 09:50:35;;;;;;;1.02;0.50;;;;;;;11.33;93.13;99210.63;6048662;28;20029;-71
2023/04/01 09:53:56;;;;;;;3.25;0.90;;;;;;;11.33;94.43;99217.78;6041039;28;20042;-72
2023/04/01 09:57:06;;;;;;;0.85;0.50;;;;;;;11.44;92.58;99205.84;6079747;28;20013;-73
2023/04/01 10:00:13;;;;;;;3.28;0.70;;;;;;;11.85;91.07;99226.28;6087744;28;20045;-71
2023/04/01 10:03:34;;;;;;;2.17;0.47;;;;;;;11.73;88.42;99221.69;6036004;28;20053;-70
2023/04/01 10:07:14;;;;;;;1.17;0.38;;;;;;;11.85;90.17;99220.16;6047616;28;20038;-72
2023/04/01 10:10:44;;;;;;;1.27;0.50;;;;;;;11.80;89.16;99215.41;6049665;28;20034;-71
2023/04/01 10:13:54;;;;;;;1.40;0.57;;;;;;;12.05;89.15;99225.63;6062904;28;20042;-70
2023/04/01 10:17:01;;;;;;;1.92;0.50;;;;;;;12.20;88.18;99223.72;6048526;28;20119;-72
2023/04/01 10:20:12;;;;;;;1.35;0.57;;;;;;;12.64;86.63;99232.19;6044445;28;20030;-72
2023/04/01 10:23:40;;;;;;;1.45;0.60;;;;;;;12.84;84.38;99227.81;6067092;28;20041;-71
2023/04/01 10:27:04;;;;;;;1.60;0.60;;;;;;;12.54;85.24;99231.72;6013534;28;20116;-71
2023/04/01 10:30:25;;;;;;;0.80;0.47;;;;;;;12.50;83.66;99231.28;6038796;28;20041;-71
2023/04/01 10:33:37;;;;;;;3.10;0.80;;;;;;;12.22;84.66;99227.84;6042841;28;20534;-71
2023/04/01 10:36:46;;;;;;;4.82;1.23;;;;;;;12.23;86.74;99231.31;6035093;28;20037;-71
2023/04/01 10:40:17;;;;;;;5.72;1.73;;;;;;;12.23;85.15;99229.47;6035402;28;20029;-70
2023/04/01 10:43:25;;;;;;;2.10;0.73;;;;;;;12.33;86.89;99229.13;6069354;28;20034;-72
2023/04/01 10:46:40;;;;;;;1.83;0.50;;;;;;;12.20;86.11;99240.47;6052507;28;20036;-72
2023/04/01 10:49:41;;;;;;;2.10;0.70;;;;;;;12.19;85.00;99238.84;6035373;28;20029;-71
2023/04/01 10:52:46;;;;;;;1.98;0.65;;;;;;;12.18;86.38;99249.66;6051947;28;20034;-73
2023/04/01 10:56:00;;;;;;;1.48;0.40;;;;;;;12.40;84.69;99249.44;6040121;28;20471;-72
2023/04/01 10:59:25;;;;;;;1.10;0.63;;;;;;;11.79;84.31;99236.88;6052308;28;20036;-71
2023/04/01 11:02:44;;;;;;;1.30;0.45;;;;;;;11.82;84.81;99253.22;6084944;28;20063;-72
2023/04/01 11:06:06;;;;;;;1.10;0.77;;;;;;;11.72;85.29;99242.09;6053170;28;20040;-71
2023/04/01 11:09:31;;;;;;;1.95;0.50;;;;;;;11.94;83.42;99248.22;6034438;28;20030;-71
2023/04/01 11:12:57;;;;;;;1.05;0.50;;;;;;;12.14;83.84;99256.38;6052184;28;20029;-71
2023/04/01 11:16:05;;;;;;;0.32;0.30;;;;;;;12.04;83.67;99245.28;6051149;28;20034;-71
2023/04/01 11:19:10;;;;;;;2.85;0.60;;;;;;;12.11;83.80;99262.91;6066240;28;20037;-70
2023/04/01 11:22:15;;;;;;;3.28;0.40;;;;;;;12.44;83.97;99264.00;6034321;28;20048;-71
2023/04/01 11:25:34;;;;;;;1.55;0.80;;;;;;;12.30;83.85;99272.06;6033577;28;20525;-69
2023/04/01 11:28:45;;;;;;;2.05;0.55;;;;;;;12.03;83.48;99255.06;6034547;28;20467;-73
2023/04/01 11:32:04;;;;;;;1.13;0.55;;;;;;;11.82;85.45;99277.13;6034440;28;20434;-72
2023/04/01 11:35:22;;;;;;;0.50;0.40;;;;;;;11.78;87.69;99275.06;6040168;28;20069;-71
2023/04/01 11:38:22;;;;;;;2.15;0.47;;;;;;;11.70;88.46;99283.13;6057898;28;20036;-72
2023/04/01 11:41:41;;;;;;;2.58;0.70;;;;;;;11.57;90.92;99278.50;6072583;28;20114;-74
2023/04/01 11:44:51;;;;;;;1.38;0.60;;;;;;;11.27;91.70;99268.94;6066085;28;20105;-71
2023/04/01 11:47:59;;;;;;;2.45;0.60;;;;;;;11.41;92.53;99267.28;6052137;28;20030;-71
2023/04/01 11:51:07;;;;;;;1.02;0.55;;;;;;;11.74;92.37;99290.53;6035256;28;20076;-73
2023/04/01 11:54:46;;;;;;;1.77;0.50;;;;;;;11.83;89.72;99292.06;6049626;28;20026;-71
2023/04/01 11:57:51;;;;;;;2.67;0.50;;;;;;;11.58;89.67;99282.78;6024971;28;20044;-71
2023/04/01 12:01:15;;;;;;;2.50;0.50;;;;;;;11.67;90.04;99300.25;6034208;28;20104;-70
2023/04/01 12:04:40;;;;;;;2.33;0.70;;;;;;;11.66;90.70;99309.22;6051567;28;20463;-71
2023/04/01 12:07:53;;;;;;;0.90;0.60;;;;;;;11.64;91.83;99313.88;6065434;28;20549;-70
2023/04/01 12:11:15;;;;;;;1.98;0.50;;;;;;;11.83;91.94;99315.97;6050946;28;20116;-72
2023/04/01 12:14:26;;;;;;;2.17;0.77;;;;;;;12.10;90.18;99313.56;6049458;28;20595;-71
2023/04/01 12:17:28;;;;;;;1.48;0.50;;;;;;;12.05;89.06;99302.69;6034634;28;20398;-73
2023/04/01 12:20:33;;;;;;;0.60;0.40;;;;;;;12.01;89.45;99330.66;6072010;28;20055;-72
2023/04/01 12:23:42;;;;;;;0.80;0.47;;;;;;;11.96;87.40;99317.94;6069666;28;20037;-72
2023/04/01 12:26:53;;;;;;;1.48;0.65;;;;;;;12.15;87.00;99324.47;6062034;28;20048;-70
2023/04/01 12:29:59;;;;;;;3.83;0.80;;;;;;;12.37;87.50;99310.13;6067521;28;20113;-72
2023/04/01 12:33:06;;;;;;;3.25;1.35;;;;;;;12.30;88.15;99317.25;6068270;28;20145;-71
2023/04/01 12:36:42;;;;;;;1.65;0.93;;;;;;;12.18;88.37;99338.19;6054913;28;20512;-71
2023/04/01 12:39:59;;;;;;;2.70;1.73;;;;;;;12.37;86.66;99339.38;6053604;28;20038;-72
2023/04/01 12:43:05;;;;;;;1.42;0.73;;;;;;;12.00;87.37;99313.06;6055863;28;20132;-73
2023/04/01 12:46:14;;;;;;;1.92;1.00;;;;;;;11.90;89.09;99332.78;6035134;28;20479;-70
2023/04/01 12:49:47;;;;;;;1.05;0.50;;;;;;;11.74;91.20;99348.16;6064892;28;20446;-70
2023/04/01 12:53:08;;;;;;;1.90;1.10;;;;;;;11.84;91.29;99336.22;6054524;28;20025;-70
2023/04/01 12:56:09;;;;;;;0.77;0.30;;;;;;;11.85;91.64;99343.16;6047903;28;20053;-70
2023/04/01 12:59:23;;;;;;;2.55;0.40;;;;;;;11.96;90.72;99359.63;6066449;28;20042;-70
2023/04/01 13:02:35;;;;;;;2.05;0.90;;;;;;;11.85;91.39;99358.25;6088250;28;20506;-70
2023/04/01 13:06:04;;;;;;;3.70;0.60;;;;;;;11.77;92.72;99364.53;6056793;28;20125;-70
2023/04/01 13:09:17;;;;;;;3.83;1.00;;;;;;;11.74;93.43;99372.84;6044834;28;20037;-71
2023/04/01 13:12:37;;;;;;;3.83;1.30;;;;;;;11.55;95.09;99383.22;6065218;28;20060;-71
2023/04/01 13:15:42;;;;;;;3.47;1.20;;;;;;;11.49;96.71;99382.13;6064305;28;20030;-72
2023/04/01 13:18:50;;;;;;;6.13;1.50;;;;;;;11.39;99.76;99384.22;6049250;28;20030;-72
2023/04/01 13:21:59;;;;;;;2.58;1.40;;;;;;;11.21;100.00;99392.56;6050058;28;20041;-71
2023/04/01 13:25:00;;;;;;;5.22;1.90;;;;;;;11.11;100.00;99399.16;6063506;28;20111;-71
2023/04/01 13:28:06;;;;;;;5.57;1.83;;;;;;;11.05;100.00;99391.91;6049572;28;20545;-71
2023/04/01 13:31:20;;;;;;;51.70;15.40;;;;;;;11.11;100.00;99391.19;6066236;28;20501;-70
2023/04/01 13:34:30;;;;;;;;;;;;;;;11.07;100.00;99400.50;6049812;28;20475;-70
2023/04/01 13:37:45;;;;;;;3.72;1.80;;;;;;;11.00;100.00;99404.91;6032183;28;20348;-71
2023/04/01 13:40:54;;;;;;;2.53;1.50;;;;;;;10.66;100.00;99414.16;6032318;28;20029;-71
2023/04/01 13:44:02;;;;;;;3.90;2.30;;;;;;;10.60;100.00;99420.16;6082136;28;20118;-72
2023/04/01 13:47:23;;;;;;;4.03;1.75;;;;;;;10.52;100.00;99433.47;6086759;28;20042;-70
2023/04/01 13:50:46;;;;;;;2.08;1.10;;;;;;;10.11;100.00;99437.34;6055678;28;20040;-69
2023/04/01 13:54:00;;;;;;;5.90;1.23;;;;;;;9.80;100.00;99415.34;6072146;28;20033;-71
2023/04/01 13:57:13;;;;;;;4.28;1.90;;;;;;;9.49;100.00;99407.38;6033860;28;20116;-69
2023/04/01 14:00:32;;;;;;;2.67;1.40;;;;;;;9.46;100.00;99434.16;6049191;28;20030;-70
2023/04/01 14:03:40;;;;;;;3.63;1.83;;;;;;;9.22;100.00;99427.13;6031286;28;20037;-70
2023/04/01 14:07:04;;;;;;;7.82;1.90;;;;;;;9.28;100.00;99452.91;6050292;28;20048;-70
2023/04/01 14:10:27;;;;;;;3.15;1.75;;;;;;;9.08;100.00;99440.25;6049360;28;20062;-70
2023/04/01 14:13:37;;;;;;;4.05;1.98;;;;;;;9.16;100.00;99451.59;6048761;28;20038;-69
2023/04/01 14:16:55;;;;;;;3.80;1.63;;;;;;;9.15;100.00;99468.47;6031653;28;20038;-70
2023/04/01 14:19:59;;;;;;;3.30;1.40;;;;;;;9.07;100.00;99471.13;6035119;28;20026;-70
2023/04/01 14:23:41;;;;;;;5.07;1.83;;;;;;;8.92;100.00;99478.91;6049864;28;20034;-71
2023/04/01 14:27:00;;;;;;;2.08;1.02;;;;;;;8.77;100.00;99482.38;6049213;28;20041;-70
2023/04/01 14:30:21;;;;;;;3.13;1.80;;;;;;;8.76;100.00;99486.00;6031805;28;20112;-70
2023/04/01 14:33:30;;;;;;;2.80;1.38;;;;;;;8.70;100.00;99484.84;6062263;28;20033;-70
2023/04/01 14:36:35;;;;;;;2.08;1.10;;;;;;;8.59;100.00;99495.72;6055508;28;20532;-71